sensor_id;sensor_type;location;lat;lon;timestamp;P1;durP1;ratioP1;P2;durP2;ratioP2
29916;SDS011;16786;49.466;11.068;2022-08-03T00:02:13;9.02;;;8.13;;
29916;SDS011;16786;49.466;11.068;2022-08-03T00:04:41;9.60;;;7.55;;
29916;SDS011;16786;49.466;11.068;2022-08-03T00:07:08;11.07;;;8.52;;
29916;SDS011;16786;49.466;11.068;2022-08-03T00:09:36;11.10;;;8.73;;
29916;SDS011;16786;49.466;11.068;2022-08-03T00:12:03;9.05;;;8.15;;
29916;SDS011;16786;49.466;11.068;2022-08-03T00:14:30;9.70;;;7.80;;
29916;SDS011;16786;49.466;11.068;2022-08-03T00:16:58;9.27;;;7.97;;
29916;SDS011;16786;49.466;11.068;2022-08-03T00:19:25;12.25;;;8.40;;
29916;SDS011;16786;49.466;11.068;2022-08-03T00:21:54;8.43;;;7.63;;
29916;SDS011;16786;49.466;11.068;2022-08-03T00:24:21;10.40;;;7.60;;
29916;SDS011;16786;49.466;11.068;2022-08-03T00:26:49;8.27;;;7.50;;
29916;SDS011;16786;49.466;11.068;2022-08-03T00:29:16;10.68;;;8.18;;
29916;SDS011;16786;49.466;11.068;2022-08-03T00:31:43;9.30;;;7.93;;
29916;SDS011;16786;49.466;11.068;2022-08-03T00:34:18;10.05;;;7.82;;
29916;SDS011;16786;49.466;11.068;2022-08-03T00:37:02;9.13;;;7.38;;
29916;SDS011;16786;49.466;11.068;2022-08-03T00:39:29;8.07;;;7.38;;
29916;SDS011;16786;49.466;11.068;2022-08-03T00:41:56;11.82;;;8.35;;
29916;SDS011;16786;49.466;11.068;2022-08-03T00:44:30;8.52;;;7.55;;
29916;SDS011;16786;49.466;11.068;2022-08-03T00:46:58;11.25;;;8.25;;
29916;SDS011;16786;49.466;11.068;2022-08-03T00:49:25;9.02;;;8.13;;
29916;SDS011;16786;49.466;11.068;2022-08-03T00:51:54;11.88;;;8.02;;
29916;SDS011;16786;49.466;11.068;2022-08-03T00:54:21;10.70;;;8.50;;
29916;SDS011;16786;49.466;11.068;2022-08-03T00:56:51;11.30;;;7.43;;
29916;SDS011;16786;49.466;11.068;2022-08-03T00:59:26;14.50;;;10.13;;
29916;SDS011;16786;49.466;11.068;2022-08-03T01:01:53;11.65;;;8.57;;
29916;SDS011;16786;49.466;11.068;2022-08-03T01:04:22;8.98;;;7.53;;
29916;SDS011;16786;49.466;11.068;2022-08-03T01:06:51;10.02;;;7.65;;
29916;SDS011;16786;49.466;11.068;2022-08-03T01:18:08;9.55;;;8.13;;
29916;SDS011;16786;49.466;11.068;2022-08-03T01:20:44;10.05;;;8.32;;
29916;SDS011;16786;49.466;11.068;2022-08-03T01:24:17;9.68;;;8.07;;
29916;SDS011;16786;49.466;11.068;2022-08-03T01:29:14;9.23;;;8.07;;
29916;SDS011;16786;49.466;11.068;2022-08-03T01:31:58;9.73;;;7.38;;
29916;SDS011;16786;49.466;11.068;2022-08-03T01:34:59;8.13;;;7.32;;
29916;SDS011;16786;49.466;11.068;2022-08-03T01:37:52;10.10;;;7.97;;
29916;SDS011;16786;49.466;11.068;2022-08-03T01:40:38;10.30;;;7.88;;
29916;SDS011;16786;49.466;11.068;2022-08-03T01:43:13;8.52;;;7.72;;
29916;SDS011;16786;49.466;11.068;2022-08-03T01:46:03;11.20;;;7.55;;
29916;SDS011;16786;49.466;11.068;2022-08-03T01:48:35;9.05;;;8.15;;
29916;SDS011;16786;49.466;11.068;2022-08-03T01:51:04;10.07;;;8.57;;
29916;SDS011;16786;49.466;11.068;2022-08-03T01:53:34;9.15;;;7.75;;
29916;SDS011;16786;49.466;11.068;2022-08-03T01:56:04;10.18;;;7.93;;
29916;SDS011;16786;49.466;11.068;2022-08-03T01:58:33;9.88;;;7.68;;
29916;SDS011;16786;49.466;11.068;2022-08-03T02:03:35;10.35;;;8.07;;
29916;SDS011;16786;49.466;11.068;2022-08-03T02:06:26;11.23;;;7.20;;
29916;SDS011;16786;49.466;11.068;2022-08-03T02:09:18;13.60;;;7.72;;
29916;SDS011;16786;49.466;11.068;2022-08-03T02:11:50;10.37;;;7.73;;
29916;SDS011;16786;49.466;11.068;2022-08-03T02:14:21;11.95;;;7.50;;
29916;SDS011;16786;49.466;11.068;2022-08-03T02:16:54;9.05;;;6.97;;
29916;SDS011;16786;49.466;11.068;2022-08-03T02:19:23;9.45;;;7.50;;
29916;SDS011;16786;49.466;11.068;2022-08-03T02:21:52;12.00;;;7.55;;
29916;SDS011;16786;49.466;11.068;2022-08-03T02:24:27;9.43;;;7.15;;
29916;SDS011;16786;49.466;11.068;2022-08-03T02:26:57;9.88;;;7.28;;
29916;SDS011;16786;49.466;11.068;2022-08-03T02:29:27;8.07;;;7.28;;
29916;SDS011;16786;49.466;11.068;2022-08-03T02:32:08;9.70;;;7.03;;
29916;SDS011;16786;49.466;11.068;2022-08-03T02:34:42;10.00;;;7.30;;
29916;SDS011;16786;49.466;11.068;2022-08-03T02:37:14;9.73;;;7.40;;
29916;SDS011;16786;49.466;11.068;2022-08-03T02:39:45;9.32;;;7.22;;
29916;SDS011;16786;49.466;11.068;2022-08-03T02:42:19;10.35;;;7.10;;
29916;SDS011;16786;49.466;11.068;2022-08-03T02:44:50;12.23;;;6.82;;
29916;SDS011;16786;49.466;11.068;2022-08-03T02:47:21;8.80;;;7.20;;
29916;SDS011;16786;49.466;11.068;2022-08-03T02:49:51;7.97;;;7.15;;
29916;SDS011;16786;49.466;11.068;2022-08-03T02:52:27;10.35;;;6.95;;
29916;SDS011;16786;49.466;11.068;2022-08-03T02:54:59;9.85;;;7.43;;
29916;SDS011;16786;49.466;11.068;2022-08-03T02:57:29;11.57;;;7.18;;
29916;SDS011;16786;49.466;11.068;2022-08-03T03:00:03;8.95;;;7.15;;
29916;SDS011;16786;49.466;11.068;2022-08-03T03:02:32;7.78;;;6.93;;
29916;SDS011;16786;49.466;11.068;2022-08-03T03:05:03;9.27;;;7.18;;
29916;SDS011;16786;49.466;11.068;2022-08-03T03:07:52;10.77;;;6.95;;
29916;SDS011;16786;49.466;11.068;2022-08-03T03:10:23;13.02;;;7.20;;
29916;SDS011;16786;49.466;11.068;2022-08-03T03:12:56;8.85;;;6.63;;
29916;SDS011;16786;49.466;11.068;2022-08-03T03:15:35;9.68;;;6.68;;
29916;SDS011;16786;49.466;11.068;2022-08-03T03:18:06;9.38;;;6.95;;
29916;SDS011;16786;49.466;11.068;2022-08-03T03:20:37;9.32;;;6.82;;
29916;SDS011;16786;49.466;11.068;2022-08-03T03:23:07;7.50;;;6.70;;
29916;SDS011;16786;49.466;11.068;2022-08-03T03:25:36;7.32;;;6.07;;
29916;SDS011;16786;49.466;11.068;2022-08-03T03:28:05;8.07;;;6.65;;
29916;SDS011;16786;49.466;11.068;2022-08-03T03:30:37;9.52;;;6.05;;
29916;SDS011;16786;49.466;11.068;2022-08-03T03:33:05;8.55;;;6.68;;
29916;SDS011;16786;49.466;11.068;2022-08-03T03:35:33;7.78;;;6.97;;
29916;SDS011;16786;49.466;11.068;2022-08-03T03:40:34;8.85;;;6.82;;
29916;SDS011;16786;49.466;11.068;2022-08-03T03:43:11;9.07;;;6.53;;
29916;SDS011;16786;49.466;11.068;2022-08-03T03:45:40;8.50;;;6.78;;
29916;SDS011;16786;49.466;11.068;2022-08-03T03:48:09;9.60;;;7.07;;
29916;SDS011;16786;49.466;11.068;2022-08-03T03:50:38;8.85;;;6.82;;
29916;SDS011;16786;49.466;11.068;2022-08-03T03:53:09;9.70;;;6.93;;
29916;SDS011;16786;49.466;11.068;2022-08-03T03:55:41;14.02;;;7.38;;
29916;SDS011;16786;49.466;11.068;2022-08-03T03:58:31;10.27;;;7.03;;
29916;SDS011;16786;49.466;11.068;2022-08-03T04:01:00;9.35;;;7.13;;
29916;SDS011;16786;49.466;11.068;2022-08-03T04:03:27;11.27;;;6.78;;
29916;SDS011;16786;49.466;11.068;2022-08-03T04:05:56;10.48;;;7.45;;
29916;SDS011;16786;49.466;11.068;2022-08-03T04:08:45;10.15;;;7.43;;
29916;SDS011;16786;49.466;11.068;2022-08-03T04:11:39;8.93;;;7.13;;
29916;SDS011;16786;49.466;11.068;2022-08-03T04:14:18;8.98;;;7.60;;
29916;SDS011;16786;49.466;11.068;2022-08-03T04:16:57;10.23;;;7.90;;
29916;SDS011;16786;49.466;11.068;2022-08-03T04:19:33;11.23;;;7.90;;
29916;SDS011;16786;49.466;11.068;2022-08-03T04:22:24;12.30;;;8.50;;
29916;SDS011;16786;49.466;11.068;2022-08-03T04:24:58;11.13;;;8.52;;
29916;SDS011;16786;49.466;11.068;2022-08-03T04:27:35;10.07;;;7.97;;
29916;SDS011;16786;49.466;11.068;2022-08-03T04:30:06;12.88;;;8.63;;
29916;SDS011;16786;49.466;11.068;2022-08-03T04:32:37;11.13;;;8.20;;
29916;SDS011;16786;49.466;11.068;2022-08-03T04:35:11;11.32;;;8.38;;
29916;SDS011;16786;49.466;11.068;2022-08-03T04:37:47;12.60;;;8.52;;
29916;SDS011;16786;49.466;11.068;2022-08-03T04:40:19;11.65;;;8.30;;
29916;SDS011;16786;49.466;11.068;2022-08-03T04:42:55;14.88;;;8.52;;
29916;SDS011;16786;49.466;11.068;2022-08-03T04:45:27;10.13;;;8.35;;
29916;SDS011;16786;49.466;11.068;2022-08-03T04:47:56;15.38;;;8.45;;
29916;SDS011;16786;49.466;11.068;2022-08-03T04:50:29;10.15;;;8.35;;
29916;SDS011;16786;49.466;11.068;2022-08-03T04:53:04;12.10;;;8.10;;
29916;SDS011;16786;49.466;11.068;2022-08-03T04:55:33;11.48;;;8.38;;
29916;SDS011;16786;49.466;11.068;2022-08-03T04:58:03;10.15;;;7.65;;
29916;SDS011;16786;49.466;11.068;2022-08-03T05:00:32;9.80;;;7.88;;
29916;SDS011;16786;49.466;11.068;2022-08-03T05:02:59;9.10;;;7.97;;
29916;SDS011;16786;49.466;11.068;2022-08-03T05:05:28;12.65;;;8.48;;
29916;SDS011;16786;49.466;11.068;2022-08-03T05:08:15;13.90;;;8.52;;
29916;SDS011;16786;49.466;11.068;2022-08-03T05:10:53;8.70;;;7.80;;
29916;SDS011;16786;49.466;11.068;2022-08-03T05:13:24;13.90;;;8.23;;
29916;SDS011;16786;49.466;11.068;2022-08-03T05:15:52;10.70;;;8.00;;
29916;SDS011;16786;49.466;11.068;2022-08-03T05:18:19;13.23;;;8.85;;
29916;SDS011;16786;49.466;11.068;2022-08-03T05:20:47;14.60;;;8.60;;
29916;SDS011;16786;49.466;11.068;2022-08-03T05:23:14;13.45;;;9.00;;
29916;SDS011;16786;49.466;11.068;2022-08-03T05:25:41;19.42;;;8.75;;
29916;SDS011;16786;49.466;11.068;2022-08-03T05:28:15;23.25;;;9.18;;
29916;SDS011;16786;49.466;11.068;2022-08-03T05:30:42;13.68;;;8.70;;
29916;SDS011;16786;49.466;11.068;2022-08-03T05:33:10;15.27;;;9.40;;
29916;SDS011;16786;49.466;11.068;2022-08-03T05:35:37;9.60;;;8.60;;
29916;SDS011;16786;49.466;11.068;2022-08-03T05:38:25;10.23;;;8.82;;
29916;SDS011;16786;49.466;11.068;2022-08-03T05:41:00;11.95;;;9.50;;
29916;SDS011;16786;49.466;11.068;2022-08-03T05:43:48;10.45;;;9.10;;
29916;SDS011;16786;49.466;11.068;2022-08-03T05:46:16;13.90;;;9.93;;
29916;SDS011;16786;49.466;11.068;2022-08-03T05:48:43;12.25;;;9.27;;
29916;SDS011;16786;49.466;11.068;2022-08-03T05:51:11;13.82;;;10.63;;
29916;SDS011;16786;49.466;11.068;2022-08-03T05:53:39;12.98;;;10.38;;
29916;SDS011;16786;49.466;11.068;2022-08-03T05:56:08;14.48;;;9.65;;
29916;SDS011;16786;49.466;11.068;2022-08-03T05:58:47;14.40;;;10.40;;
29916;SDS011;16786;49.466;11.068;2022-08-03T06:01:15;10.85;;;9.68;;
29916;SDS011;16786;49.466;11.068;2022-08-03T06:03:43;10.82;;;8.88;;
29916;SDS011;16786;49.466;11.068;2022-08-03T06:06:11;9.98;;;9.02;;
29916;SDS011;16786;49.466;11.068;2022-08-03T06:08:39;10.77;;;9.65;;
29916;SDS011;16786;49.466;11.068;2022-08-03T06:11:07;9.40;;;8.40;;
29916;SDS011;16786;49.466;11.068;2022-08-03T06:13:35;11.90;;;9.73;;
29916;SDS011;16786;49.466;11.068;2022-08-03T06:16:03;11.93;;;9.18;;
29916;SDS011;16786;49.466;11.068;2022-08-03T06:18:31;10.48;;;9.40;;
29916;SDS011;16786;49.466;11.068;2022-08-03T06:20:59;13.02;;;9.68;;
29916;SDS011;16786;49.466;11.068;2022-08-03T06:23:42;12.80;;;9.82;;
29916;SDS011;16786;49.466;11.068;2022-08-03T06:26:21;10.30;;;9.05;;
29916;SDS011;16786;49.466;11.068;2022-08-03T06:28:50;14.25;;;9.13;;
29916;SDS011;16786;49.466;11.068;2022-08-03T06:31:21;13.15;;;10.02;;
29916;SDS011;16786;49.466;11.068;2022-08-03T06:34:03;11.68;;;9.32;;
29916;SDS011;16786;49.466;11.068;2022-08-03T06:36:58;11.43;;;8.75;;
29916;SDS011;16786;49.466;11.068;2022-08-03T06:39:28;12.55;;;9.57;;
29916;SDS011;16786;49.466;11.068;2022-08-03T06:41:55;11.93;;;9.40;;
29916;SDS011;16786;49.466;11.068;2022-08-03T06:44:24;12.45;;;8.85;;
29916;SDS011;16786;49.466;11.068;2022-08-03T06:46:55;13.52;;;9.10;;
29916;SDS011;16786;49.466;11.068;2022-08-03T06:49:25;13.02;;;8.63;;
29916;SDS011;16786;49.466;11.068;2022-08-03T06:51:54;11.23;;;8.48;;
29916;SDS011;16786;49.466;11.068;2022-08-03T06:54:32;9.93;;;8.25;;
29916;SDS011;16786;49.466;11.068;2022-08-03T06:57:04;12.00;;;8.00;;
29916;SDS011;16786;49.466;11.068;2022-08-03T06:59:34;9.40;;;8.25;;
29916;SDS011;16786;49.466;11.068;2022-08-03T07:02:25;11.32;;;8.02;;
29916;SDS011;16786;49.466;11.068;2022-08-03T07:04:54;9.73;;;8.70;;
29916;SDS011;16786;49.466;11.068;2022-08-03T07:07:23;10.70;;;8.82;;
29916;SDS011;16786;49.466;11.068;2022-08-03T07:09:51;9.93;;;8.05;;
29916;SDS011;16786;49.466;11.068;2022-08-03T07:12:24;11.02;;;7.75;;
29916;SDS011;16786;49.466;11.068;2022-08-03T07:14:54;11.70;;;8.20;;
29916;SDS011;16786;49.466;11.068;2022-08-03T07:17:28;12.00;;;8.13;;
29916;SDS011;16786;49.466;11.068;2022-08-03T07:20:03;9.68;;;8.45;;
29916;SDS011;16786;49.466;11.068;2022-08-03T07:22:33;10.95;;;7.90;;
29916;SDS011;16786;49.466;11.068;2022-08-03T07:25:01;8.57;;;7.30;;
29916;SDS011;16786;49.466;11.068;2022-08-03T07:27:31;12.05;;;8.43;;
29916;SDS011;16786;49.466;11.068;2022-08-03T07:30:04;10.25;;;7.53;;
29916;SDS011;16786;49.466;11.068;2022-08-03T07:32:34;8.43;;;7.30;;
29916;SDS011;16786;49.466;11.068;2022-08-03T07:35:16;10.00;;;7.43;;
29916;SDS011;16786;49.466;11.068;2022-08-03T07:37:52;12.35;;;8.02;;
29916;SDS011;16786;49.466;11.068;2022-08-03T07:40:21;8.73;;;7.13;;
29916;SDS011;16786;49.466;11.068;2022-08-03T07:42:54;8.38;;;7.53;;
29916;SDS011;16786;49.466;11.068;2022-08-03T07:45:21;8.48;;;7.68;;
29916;SDS011;16786;49.466;11.068;2022-08-03T07:47:49;8.45;;;7.45;;
29916;SDS011;16786;49.466;11.068;2022-08-03T07:50:19;8.57;;;7.40;;
29916;SDS011;16786;49.466;11.068;2022-08-03T07:52:48;10.73;;;7.40;;
29916;SDS011;16786;49.466;11.068;2022-08-03T07:55:19;7.97;;;7.18;;
29916;SDS011;16786;49.466;11.068;2022-08-03T08:00:31;7.97;;;7.18;;
29916;SDS011;16786;49.466;11.068;2022-08-03T08:03:00;7.68;;;6.97;;
29916;SDS011;16786;49.466;11.068;2022-08-03T08:05:31;9.88;;;6.90;;
29916;SDS011;16786;49.466;11.068;2022-08-03T08:08:00;9.05;;;7.40;;
29916;SDS011;16786;49.466;11.068;2022-08-03T08:10:27;10.30;;;7.13;;
29916;SDS011;16786;49.466;11.068;2022-08-03T08:12:56;9.43;;;7.47;;
29916;SDS011;16786;49.466;11.068;2022-08-03T08:15:24;7.78;;;6.90;;
29916;SDS011;16786;49.466;11.068;2022-08-03T08:17:54;8.60;;;7.10;;
29916;SDS011;16786;49.466;11.068;2022-08-03T08:20:29;6.95;;;6.32;;
29916;SDS011;16786;49.466;11.068;2022-08-03T08:23:02;8.32;;;7.18;;
29916;SDS011;16786;49.466;11.068;2022-08-03T08:25:51;8.93;;;6.80;;
29916;SDS011;16786;49.466;11.068;2022-08-03T08:28:20;10.57;;;7.95;;
29916;SDS011;16786;49.466;11.068;2022-08-03T08:30:59;9.43;;;6.85;;
29916;SDS011;16786;49.466;11.068;2022-08-03T08:33:27;8.18;;;7.35;;
29916;SDS011;16786;49.466;11.068;2022-08-03T08:36:15;10.32;;;6.28;;
29916;SDS011;16786;49.466;11.068;2022-08-03T08:38:44;9.80;;;6.70;;
29916;SDS011;16786;49.466;11.068;2022-08-03T08:41:13;9.27;;;6.90;;
29916;SDS011;16786;49.466;11.068;2022-08-03T08:43:41;8.27;;;6.57;;
29916;SDS011;16786;49.466;11.068;2022-08-03T08:46:10;8.55;;;6.70;;
29916;SDS011;16786;49.466;11.068;2022-08-03T08:48:50;6.65;;;6.03;;
29916;SDS011;16786;49.466;11.068;2022-08-03T08:51:21;7.95;;;6.95;;
29916;SDS011;16786;49.466;11.068;2022-08-03T08:54:13;11.02;;;7.30;;
29916;SDS011;16786;49.466;11.068;2022-08-03T08:56:47;8.75;;;6.82;;
29916;SDS011;16786;49.466;11.068;2022-08-03T08:59:19;10.60;;;6.95;;
29916;SDS011;16786;49.466;11.068;2022-08-03T09:01:47;7.60;;;6.40;;
29916;SDS011;16786;49.466;11.068;2022-08-03T09:04:16;7.95;;;7.20;;
29916;SDS011;16786;49.466;11.068;2022-08-03T09:06:44;8.13;;;6.88;;
29916;SDS011;16786;49.466;11.068;2022-08-03T09:09:32;8.18;;;7.07;;
29916;SDS011;16786;49.466;11.068;2022-08-03T09:12:22;11.45;;;6.72;;
29916;SDS011;16786;49.466;11.068;2022-08-03T09:15:20;7.85;;;6.22;;
29916;SDS011;16786;49.466;11.068;2022-08-03T09:17:58;11.38;;;6.80;;
29916;SDS011;16786;49.466;11.068;2022-08-03T09:20:28;6.78;;;6.13;;
29916;SDS011;16786;49.466;11.068;2022-08-03T09:23:01;10.57;;;7.28;;
29916;SDS011;16786;49.466;11.068;2022-08-03T09:25:56;7.72;;;5.97;;
29916;SDS011;16786;49.466;11.068;2022-08-03T09:28:32;8.23;;;7.10;;
29916;SDS011;16786;49.466;11.068;2022-08-03T09:31:31;9.60;;;6.38;;
29916;SDS011;16786;49.466;11.068;2022-08-03T09:34:00;8.57;;;5.93;;
29916;SDS011;16786;49.466;11.068;2022-08-03T09:39:04;7.53;;;6.07;;
29916;SDS011;16786;49.466;11.068;2022-08-03T09:41:37;8.13;;;6.55;;
29916;SDS011;16786;49.466;11.068;2022-08-03T09:44:07;10.43;;;7.07;;
29916;SDS011;16786;49.466;11.068;2022-08-03T09:46:51;6.63;;;5.80;;
29916;SDS011;16786;49.466;11.068;2022-08-03T09:49:23;8.85;;;5.85;;
29916;SDS011;16786;49.466;11.068;2022-08-03T09:51:51;10.30;;;7.15;;
29916;SDS011;16786;49.466;11.068;2022-08-03T09:54:39;7.07;;;6.38;;
29916;SDS011;16786;49.466;11.068;2022-08-03T09:57:10;6.93;;;6.32;;
29916;SDS011;16786;49.466;11.068;2022-08-03T09:59:47;9.38;;;6.68;;
29916;SDS011;16786;49.466;11.068;2022-08-03T10:02:22;7.17;;;6.57;;
29916;SDS011;16786;49.466;11.068;2022-08-03T10:04:51;7.53;;;6.75;;
29916;SDS011;16786;49.466;11.068;2022-08-03T10:07:20;7.50;;;6.85;;
29916;SDS011;16786;49.466;11.068;2022-08-03T10:10:07;7.00;;;6.30;;
29916;SDS011;16786;49.466;11.068;2022-08-03T10:12:56;8.15;;;7.25;;
29916;SDS011;16786;49.466;11.068;2022-08-03T10:15:23;8.43;;;7.53;;
29916;SDS011;16786;49.466;11.068;2022-08-03T10:18:11;8.25;;;6.57;;
29916;SDS011;16786;49.466;11.068;2022-08-03T10:20:40;7.93;;;6.75;;
29916;SDS011;16786;49.466;11.068;2022-08-03T10:23:12;6.93;;;6.18;;
29916;SDS011;16786;49.466;11.068;2022-08-03T10:25:44;6.20;;;5.60;;
29916;SDS011;16786;49.466;11.068;2022-08-03T10:28:18;6.55;;;5.97;;
29916;SDS011;16786;49.466;11.068;2022-08-03T10:30:50;6.28;;;5.78;;
29916;SDS011;16786;49.466;11.068;2022-08-03T10:36:07;9.63;;;5.97;;
29916;SDS011;16786;49.466;11.068;2022-08-03T10:38:42;8.23;;;5.95;;
29916;SDS011;16786;49.466;11.068;2022-08-03T10:41:12;6.38;;;5.75;;
29916;SDS011;16786;49.466;11.068;2022-08-03T10:46:22;6.53;;;5.90;;
29916;SDS011;16786;49.466;11.068;2022-08-03T10:48:52;6.65;;;6.00;;
29916;SDS011;16786;49.466;11.068;2022-08-03T10:51:20;7.40;;;5.68;;
29916;SDS011;16786;49.466;11.068;2022-08-03T10:53:49;6.43;;;5.90;;
29916;SDS011;16786;49.466;11.068;2022-08-03T11:00:03;6.30;;;5.70;;
29916;SDS011;16786;49.466;11.068;2022-08-03T11:02:16;8.23;;;6.45;;
29916;SDS011;16786;49.466;11.068;2022-08-03T11:04:44;6.53;;;5.93;;
29916;SDS011;16786;49.466;11.068;2022-08-03T11:09:52;6.40;;;5.80;;
29916;SDS011;16786;49.466;11.068;2022-08-03T11:12:26;8.73;;;6.07;;
29916;SDS011;16786;49.466;11.068;2022-08-03T11:14:58;6.30;;;5.80;;
29916;SDS011;16786;49.466;11.068;2022-08-03T11:17:29;6.53;;;6.03;;
29916;SDS011;16786;49.466;11.068;2022-08-03T11:20:12;7.95;;;5.60;;
29916;SDS011;16786;49.466;11.068;2022-08-03T11:22:47;6.03;;;5.43;;
29916;SDS011;16786;49.466;11.068;2022-08-03T11:25:17;6.03;;;5.43;;
29916;SDS011;16786;49.466;11.068;2022-08-03T11:30:54;6.22;;;5.30;;
29916;SDS011;16786;49.466;11.068;2022-08-03T11:33:28;6.35;;;5.68;;
29916;SDS011;16786;49.466;11.068;2022-08-03T11:35:58;6.30;;;5.70;;
29916;SDS011;16786;49.466;11.068;2022-08-03T11:38:27;5.73;;;5.23;;
29916;SDS011;16786;49.466;11.068;2022-08-03T11:40:56;7.40;;;5.35;;
29916;SDS011;16786;49.466;11.068;2022-08-03T11:46:05;6.35;;;5.75;;
29916;SDS011;16786;49.466;11.068;2022-08-03T11:48:39;9.85;;;5.55;;
29916;SDS011;16786;49.466;11.068;2022-08-03T11:51:22;6.60;;;5.25;;
29916;SDS011;16786;49.466;11.068;2022-08-03T11:53:55;7.80;;;5.68;;
29916;SDS011;16786;49.466;11.068;2022-08-03T11:56:23;6.05;;;5.40;;
29916;SDS011;16786;49.466;11.068;2022-08-03T11:58:55;8.02;;;4.80;;
29916;SDS011;16786;49.466;11.068;2022-08-03T12:01:44;5.25;;;4.85;;
29916;SDS011;16786;49.466;11.068;2022-08-03T12:04:12;5.22;;;4.70;;
29916;SDS011;16786;49.466;11.068;2022-08-03T12:06:56;5.65;;;5.15;;
29916;SDS011;16786;49.466;11.068;2022-08-03T12:09:27;5.90;;;5.32;;
29916;SDS011;16786;49.466;11.068;2022-08-03T12:11:55;5.78;;;5.10;;
29916;SDS011;16786;49.466;11.068;2022-08-03T12:14:26;6.20;;;5.47;;
29916;SDS011;16786;49.466;11.068;2022-08-03T12:17:17;6.15;;;5.57;;
29916;SDS011;16786;49.466;11.068;2022-08-03T12:19:45;5.93;;;5.43;;
29916;SDS011;16786;49.466;11.068;2022-08-03T12:22:13;6.57;;;5.70;;
29916;SDS011;16786;49.466;11.068;2022-08-03T12:24:43;6.75;;;5.35;;
29916;SDS011;16786;49.466;11.068;2022-08-03T12:27:23;5.57;;;5.07;;
29916;SDS011;16786;49.466;11.068;2022-08-03T12:29:55;6.07;;;5.57;;
29916;SDS011;16786;49.466;11.068;2022-08-03T12:32:28;5.80;;;5.20;;
29916;SDS011;16786;49.466;11.068;2022-08-03T12:34:57;5.90;;;5.40;;
29916;SDS011;16786;49.466;11.068;2022-08-03T12:37:27;5.93;;;5.43;;
29916;SDS011;16786;49.466;11.068;2022-08-03T12:39:59;5.70;;;5.07;;
29916;SDS011;16786;49.466;11.068;2022-08-03T12:42:37;5.93;;;5.32;;
29916;SDS011;16786;49.466;11.068;2022-08-03T12:45:20;5.50;;;5.00;;
29916;SDS011;16786;49.466;11.068;2022-08-03T12:47:55;5.63;;;5.13;;
29916;SDS011;16786;49.466;11.068;2022-08-03T12:52:53;7.70;;;4.82;;
29916;SDS011;16786;49.466;11.068;2022-08-03T12:55:21;5.93;;;5.35;;
29916;SDS011;16786;49.466;11.068;2022-08-03T12:57:50;7.88;;;5.20;;
29916;SDS011;16786;49.466;11.068;2022-08-03T13:00:18;5.55;;;5.10;;
29916;SDS011;16786;49.466;11.068;2022-08-03T13:02:58;5.50;;;5.00;;
29916;SDS011;16786;49.466;11.068;2022-08-03T13:05:47;9.80;;;8.02;;
29916;SDS011;16786;49.466;11.068;2022-08-03T13:08:21;5.70;;;5.10;;
29916;SDS011;16786;49.466;11.068;2022-08-03T13:10:50;6.07;;;4.72;;
29916;SDS011;16786;49.466;11.068;2022-08-03T13:13:18;8.32;;;5.45;;
29916;SDS011;16786;49.466;11.068;2022-08-03T13:16:04;8.25;;;5.30;;
29916;SDS011;16786;49.466;11.068;2022-08-03T13:18:31;6.00;;;4.55;;
29916;SDS011;16786;49.466;11.068;2022-08-03T13:20:59;7.60;;;5.10;;
29916;SDS011;16786;49.466;11.068;2022-08-03T13:23:28;5.47;;;5.00;;
29916;SDS011;16786;49.466;11.068;2022-08-03T13:25:56;6.13;;;4.78;;
29916;SDS011;16786;49.466;11.068;2022-08-03T13:28:23;5.75;;;5.00;;
29916;SDS011;16786;49.466;11.068;2022-08-03T13:30:51;5.07;;;4.68;;
29916;SDS011;16786;49.466;11.068;2022-08-03T13:33:20;5.25;;;4.82;;
29916;SDS011;16786;49.466;11.068;2022-08-03T13:35:48;5.40;;;5.00;;
29916;SDS011;16786;49.466;11.068;2022-08-03T13:38:15;5.88;;;5.38;;
29916;SDS011;16786;49.466;11.068;2022-08-03T13:40:47;5.50;;;5.00;;
29916;SDS011;16786;49.466;11.068;2022-08-03T13:43:15;5.32;;;4.93;;
29916;SDS011;16786;49.466;11.068;2022-08-03T13:45:43;6.25;;;5.30;;
29916;SDS011;16786;49.466;11.068;2022-08-03T13:48:19;6.45;;;4.93;;
29916;SDS011;16786;49.466;11.068;2022-08-03T13:51:03;6.20;;;5.43;;
29916;SDS011;16786;49.466;11.068;2022-08-03T13:53:48;6.18;;;4.80;;
29916;SDS011;16786;49.466;11.068;2022-08-03T13:56:18;5.57;;;5.00;;
29916;SDS011;16786;49.466;11.068;2022-08-03T13:58:48;5.10;;;4.60;;
29916;SDS011;16786;49.466;11.068;2022-08-03T14:01:15;5.40;;;5.00;;
29916;SDS011;16786;49.466;11.068;2022-08-03T14:04:03;5.72;;;5.30;;
29916;SDS011;16786;49.466;11.068;2022-08-03T14:06:41;5.88;;;5.45;;
29916;SDS011;16786;49.466;11.068;2022-08-03T14:09:12;5.45;;;4.95;;
29916;SDS011;16786;49.466;11.068;2022-08-03T14:11:41;6.43;;;5.15;;
29916;SDS011;16786;49.466;11.068;2022-08-03T14:14:29;5.78;;;4.88;;
29916;SDS011;16786;49.466;11.068;2022-08-03T14:16:56;5.50;;;5.00;;
29916;SDS011;16786;49.466;11.068;2022-08-03T14:19:24;5.00;;;4.60;;
29916;SDS011;16786;49.466;11.068;2022-08-03T14:21:53;5.20;;;4.70;;
29916;SDS011;16786;49.466;11.068;2022-08-03T14:26:59;6.53;;;5.10;;
29916;SDS011;16786;49.466;11.068;2022-08-03T14:29:42;6.30;;;5.53;;
29916;SDS011;16786;49.466;11.068;2022-08-03T14:32:10;6.07;;;5.57;;
29916;SDS011;16786;49.466;11.068;2022-08-03T14:34:39;6.20;;;5.80;;
29916;SDS011;16786;49.466;11.068;2022-08-03T14:37:08;7.65;;;5.55;;
29916;SDS011;16786;49.466;11.068;2022-08-03T14:39:36;6.35;;;5.95;;
29916;SDS011;16786;49.466;11.068;2022-08-03T14:42:24;7.00;;;6.50;;
29916;SDS011;16786;49.466;11.068;2022-08-03T14:44:51;7.70;;;7.10;;
29916;SDS011;16786;49.466;11.068;2022-08-03T14:47:26;7.63;;;7.05;;
29916;SDS011;16786;49.466;11.068;2022-08-03T14:49:53;8.48;;;7.20;;
29916;SDS011;16786;49.466;11.068;2022-08-03T14:52:41;7.45;;;6.80;;
29916;SDS011;16786;49.466;11.068;2022-08-03T14:55:09;7.40;;;6.90;;
29916;SDS011;16786;49.466;11.068;2022-08-03T14:57:36;7.50;;;6.90;;
29916;SDS011;16786;49.466;11.068;2022-08-03T15:00:04;7.78;;;7.28;;
29916;SDS011;16786;49.466;11.068;2022-08-03T15:02:32;8.02;;;7.43;;
29916;SDS011;16786;49.466;11.068;2022-08-03T15:04:59;8.30;;;7.80;;
29916;SDS011;16786;49.466;11.068;2022-08-03T15:07:26;8.70;;;8.10;;
29916;SDS011;16786;49.466;11.068;2022-08-03T15:09:54;9.00;;;8.15;;
29916;SDS011;16786;49.466;11.068;2022-08-03T15:12:21;8.90;;;8.00;;
29916;SDS011;16786;49.466;11.068;2022-08-03T15:14:48;9.30;;;8.50;;
29916;SDS011;16786;49.466;11.068;2022-08-03T15:17:16;8.32;;;7.75;;
29916;SDS011;16786;49.466;11.068;2022-08-03T15:19:43;9.10;;;7.80;;
29916;SDS011;16786;49.466;11.068;2022-08-03T15:22:31;8.13;;;7.40;;
29916;SDS011;16786;49.466;11.068;2022-08-03T15:25:01;8.48;;;7.80;;
29916;SDS011;16786;49.466;11.068;2022-08-03T15:27:49;7.82;;;7.22;;
29916;SDS011;16786;49.466;11.068;2022-08-03T15:30:30;8.20;;;7.50;;
29916;SDS011;16786;49.466;11.068;2022-08-03T15:33:01;8.05;;;7.18;;
29916;SDS011;16786;49.466;11.068;2022-08-03T15:35:29;7.80;;;6.88;;
29916;SDS011;16786;49.466;11.068;2022-08-03T15:37:56;7.43;;;6.82;;
29916;SDS011;16786;49.466;11.068;2022-08-03T15:40:23;7.00;;;6.50;;
29916;SDS011;16786;49.466;11.068;2022-08-03T15:42:51;7.47;;;6.47;;
29916;SDS011;16786;49.466;11.068;2022-08-03T15:45:18;8.52;;;6.97;;
29916;SDS011;16786;49.466;11.068;2022-08-03T15:47:46;6.65;;;6.15;;
29916;SDS011;16786;49.466;11.068;2022-08-03T15:50:13;6.55;;;5.97;;